createdAt,value
2023-01-23T00:04:05.666Z,7.00
2023-01-23T00:25:29.899Z,3.50
2023-01-23T00:33:36.519Z,4.90
2023-01-23T00:37:19.590Z,6.10
2023-01-23T00:44:53.526Z,6.30
2023-01-23T00:53:05.565Z,4.60
2023-01-23T01:00:58.080Z,5.80
2023-01-23T01:04:58.603Z,4.80
2023-01-23T01:08:35.545Z,5.10
2023-01-23T01:15:36.717Z,5.50
2023-01-23T01:22:54.644Z,5.20
2023-01-23T01:26:40.817Z,5.70
2023-01-23T01:30:20.250Z,3.20
2023-01-23T01:33:51.104Z,5.30
2023-01-23T02:18:21.811Z,5.60
2023-01-23T02:22:03.738Z,4.40
2023-01-23T02:32:29.711Z,4.80
2023-01-23T02:40:16.730Z,4.30
2023-01-23T02:47:42.716Z,4.20
2023-01-23T02:51:54.652Z,3.90
2023-01-23T02:55:28.766Z,4.80
2023-01-23T02:59:10.551Z,2.30
2023-01-23T03:02:49.610Z,3.70
2023-01-23T03:06:53.611Z,2.80
2023-01-23T03:11:36.683Z,3.80
2023-01-23T03:15:24.978Z,3.80
2023-01-23T03:23:35.426Z,4.10
2023-01-23T03:27:13.825Z,5.70
2023-01-23T04:21:59.662Z,3.60
2023-01-23T04:29:39.827Z,5.80
2023-01-23T04:33:18.788Z,5.70
2023-01-23T04:41:28.069Z,4.60
2023-01-23T04:59:24.006Z,6.60
2023-01-23T05:06:48.878Z,6.60
2023-01-23T05:13:36.811Z,5.40
2023-01-23T05:17:45.536Z,5.50
2023-01-23T05:24:42.760Z,6.30
2023-01-23T05:28:38.985Z,7.60
2023-01-23T05:36:33.516Z,8.00
2023-01-23T05:43:59.836Z,8.90
2023-01-23T05:48:16.819Z,6.40
2023-01-23T05:52:04.787Z,8.50
2023-01-23T06:03:52.933Z,8.20
2023-01-23T06:08:50.014Z,9.50
2023-01-23T06:12:31.875Z,7.90
2023-01-23T06:20:41.880Z,9.10
2023-01-23T06:28:43.857Z,8.10
2023-01-23T06:31:55.941Z,8.00
2023-01-23T06:35:30.876Z,9.20
2023-01-23T06:39:20.870Z,6.60
2023-01-23T06:43:09.942Z,9.00
2023-01-23T06:46:42.933Z,7.40
2023-01-23T06:53:37.909Z,6.30
2023-01-23T06:57:24.900Z,7.60
2023-01-23T07:01:00.180Z,9.00
2023-01-23T07:04:49.927Z,7.20
2023-01-23T07:08:19.872Z,8.80
2023-01-23T07:19:00.899Z,7.50
2023-01-23T07:22:40.862Z,8.80
2023-01-23T07:30:00.918Z,8.30
2023-01-23T07:34:15.749Z,9.50
2023-01-23T07:38:04.818Z,6.30
2023-01-23T07:45:29.905Z,8.30
2023-01-23T07:48:53.674Z,7.30
2023-01-23T07:52:39.967Z,9.00
2023-01-23T07:56:27.690Z,8.40
2023-01-23T08:00:10.669Z,8.20
2023-01-23T08:03:56.116Z,9.40
2023-01-23T08:07:45.984Z,9.10
2023-01-23T08:11:17.941Z,7.80
2023-01-23T08:18:12.957Z,8.60
2023-01-23T08:21:45.910Z,9.50
2023-01-23T08:25:19.936Z,8.80
2023-01-23T08:28:58.916Z,8.90
2023-01-23T08:32:34.921Z,8.20
2023-01-23T08:36:59.432Z,7.00
2023-01-23T08:40:34.012Z,10.60
2023-01-23T08:44:06.972Z,10.80
2023-01-23T08:47:48.493Z,10.50
2023-01-23T08:51:29.991Z,10.70
2023-01-23T09:02:57.286Z,12.40
2023-01-23T09:06:48.285Z,10.90
2023-01-23T09:10:35.110Z,12.40
2023-01-23T09:14:13.440Z,11.60
2023-01-23T09:22:06.237Z,14.40
2023-01-23T09:25:44.311Z,10.50
2023-01-23T13:20:00.542Z,15.20
2023-01-23T13:24:05.443Z,13.80
2023-01-23T13:27:50.364Z,13.90
2023-01-23T13:31:55.126Z,15.30
2023-01-23T13:36:11.508Z,11.90
2023-01-23T13:40:05.539Z,13.00
2023-01-23T13:43:29.896Z,13.00
2023-01-23T14:20:22.240Z,9.80
2023-01-23T14:24:59.939Z,8.20
2023-01-23T14:28:38.925Z,9.40
2023-01-23T14:32:24.937Z,8.40
2023-01-23T14:39:53.699Z,9.00
2023-01-23T14:47:03.926Z,8.20
2023-01-23T14:53:48.905Z,7.70
2023-01-23T15:00:30.977Z,7.80
2023-01-23T15:08:26.899Z,8.80
2023-01-23T15:12:12.540Z,9.70
2023-01-23T15:16:10.625Z,9.70
2023-01-23T15:20:55.935Z,10.40
2023-01-23T15:24:28.876Z,10.70
2023-01-23T15:28:43.979Z,10.50
2023-01-23T15:32:29.956Z,9.70
2023-01-23T15:36:42.748Z,10.00
2023-01-23T15:46:59.993Z,9.60
2023-01-23T15:51:24.305Z,10.50
2023-01-23T15:56:07.019Z,11.00
2023-01-23T16:00:19.228Z,10.00
2023-01-23T16:04:36.312Z,9.30
2023-01-23T16:08:55.083Z,9.20
2023-01-23T16:13:21.462Z,9.40
2023-01-23T16:17:52.566Z,9.50
2023-01-23T16:22:13.169Z,11.10
2023-01-23T16:25:48.311Z,9.40
2023-01-23T16:30:06.559Z,8.20
2023-01-23T16:33:55.665Z,7.60
2023-01-23T16:37:58.574Z,8.50
2023-01-23T16:41:59.934Z,10.50
2023-01-23T16:46:01.181Z,9.80
2023-01-23T16:50:17.292Z,11.40
2023-01-23T16:54:29.989Z,12.30
2023-01-23T16:58:41.335Z,11.90
2023-01-23T17:02:25.450Z,11.90
2023-01-23T17:06:35.228Z,16.10
2023-01-23T17:11:02.949Z,14.20
2023-01-23T17:15:23.148Z,11.60
2023-01-23T17:19:30.273Z,11.60
2023-01-23T17:23:38.098Z,15.60
2023-01-23T17:27:44.925Z,14.10
2023-01-23T17:31:57.383Z,14.20
2023-01-23T17:36:16.504Z,14.50
2023-01-23T17:40:15.910Z,13.40
2023-01-23T17:44:16.928Z,15.00
2023-01-23T17:48:12.854Z,10.40
2023-01-23T17:51:55.940Z,14.60
2023-01-23T17:55:49.037Z,9.10
2023-01-23T17:59:30.731Z,12.80
2023-01-23T18:03:45.045Z,10.00
2023-01-23T18:07:53.052Z,15.30
2023-01-23T18:12:05.453Z,11.70
2023-01-23T18:16:12.344Z,15.70
2023-01-23T18:19:57.684Z,21.10
2023-01-23T18:23:45.905Z,13.80
2023-01-23T18:27:59.693Z,8.80
2023-01-23T18:32:26.184Z,10.10
2023-01-23T18:36:45.962Z,11.30
2023-01-23T18:40:52.161Z,13.10
2023-01-23T18:45:23.723Z,14.60
2023-01-23T18:49:14.919Z,17.50
2023-01-23T18:53:24.925Z,18.20
2023-01-23T18:57:26.137Z,14.70
2023-01-23T19:01:22.265Z,7.80
2023-01-23T19:05:18.067Z,17.90
2023-01-23T22:11:49.983Z,14.00
2023-01-23T22:15:48.255Z,13.30
2023-01-23T22:23:36.821Z,11.60
2023-01-23T22:28:07.605Z,10.30
2023-01-23T22:32:24.365Z,11.20
2023-01-23T22:37:07.725Z,8.70
2023-01-23T22:41:29.283Z,9.00
2023-01-23T22:45:46.193Z,10.10
2023-01-23T22:50:11.620Z,9.70
2023-01-23T22:55:04.467Z,9.90
2023-01-23T23:03:24.263Z,8.60
2023-01-23T23:07:52.463Z,9.70
2023-01-23T23:12:07.665Z,9.50
2023-01-23T23:25:29.790Z,9.40
2023-01-23T23:29:27.226Z,8.70
2023-01-23T23:34:02.436Z,9.40
2023-01-23T23:40:55.705Z,9.50
2023-01-23T23:55:53.050Z,7.70
2023-01-23T23:59:58.735Z,9.80
